Time;durP1;ratioP1;P1;durP2;ratioP2;P2;SDS_P1;SDS_P2;PMS_P1;PMS_P2;Temp;Humidity;BMP_temperature;BMP_pressure;BME280_temperature;BME280_humidity;BME280_pressure;Samples;Min_cycle;Max_cycle;Signal;HPM_P1;HPM_P2
2021/08/29 00:00:55;;;;;;;7.10;6.10;;;16.20;65.20;;;;;;5085739;28;20028;-78
2021/08/29 00:03:20;;;;;;;7.05;6.35;;;16.20;65.30;;;;;;5094058;28;20467;-82
2021/08/29 00:05:46;;;;;;;7.25;6.18;;;16.10;65.10;;;;;;5107352;28;20031;-81
2021/08/29 00:08:12;;;;;;;6.57;5.93;;;16.10;65.20;;;;;;5105558;28;20038;-79
2021/08/29 00:10:38;;;;;;;7.80;6.35;;;16.00;65.10;;;;;;5087498;28;20031;-79
2021/08/29 00:13:04;;;;;;;7.00;6.10;;;16.00;65.20;;;;;;5091022;28;20050;-82
2021/08/29 00:15:30;;;;;;;9.00;5.90;;;16.00;65.20;;;;;;5108254;28;20080;-82
2021/08/29 00:17:56;;;;;;;7.63;6.07;;;16.00;65.30;;;;;;5105939;28;20035;-82
2021/08/29 00:20:22;;;;;;;7.28;6.53;;;16.00;65.30;;;;;;5069896;28;20032;-82
2021/08/29 00:22:48;;;;;;;7.43;6.07;;;16.00;65.40;;;;;;5087288;28;20387;-80
2021/08/29 00:25:14;;;;;;;8.55;6.25;;;15.90;65.20;;;;;;5086644;28;20101;-81
2021/08/29 00:27:40;;;;;;;6.80;6.10;;;15.90;65.30;;;;;;5087900;28;20074;-81
2021/08/29 00:30:06;;;;;;;9.13;6.57;;;15.90;65.40;;;;;;5104481;28;20031;-83
2021/08/29 00:32:33;;;;;;;6.93;6.22;;;15.80;65.20;;;;;;5091982;28;20089;-83
2021/08/29 00:34:58;;;;;;;12.45;7.03;;;15.80;65.20;;;;;;5086826;28;20040;-83
2021/08/29 00:37:24;;;;;;;8.73;6.72;;;15.80;65.30;;;;;;5069100;28;20062;-80
2021/08/29 00:39:51;;;;;;;7.82;6.40;;;15.80;65.40;;;;;;5102048;28;20031;-83
2021/08/29 00:42:17;;;;;;;6.82;5.88;;;15.70;65.20;;;;;;5089177;28;20395;-82
2021/08/29 00:44:45;;;;;;;9.20;7.30;;;15.70;65.30;;;;;;5105774;28;20036;-82
2021/08/29 00:47:11;;;;;;;8.05;6.53;;;15.70;65.40;;;;;;5072253;28;20547;-82
2021/08/29 00:49:41;;;;;;;7.82;7.03;;;15.70;65.50;;;;;;5092662;28;20483;-81
2021/08/29 00:52:08;;;;;;;10.15;6.88;;;15.60;65.40;;;;;;5084936;28;20035;-82
2021/08/29 00:54:36;;;;;;;9.15;7.15;;;15.60;65.40;;;;;;5102287;28;20028;-80
2021/08/29 00:57:08;;;;;;;8.88;7.32;;;15.60;65.50;;;;;;5105856;28;20032;-82
2021/08/29 00:59:42;;;;;;;9.73;7.63;;;15.50;65.40;;;;;;5105458;28;20103;-83
2021/08/29 01:02:14;;;;;;;8.48;7.07;;;15.50;65.50;;;;;;5077423;28;20038;-81
2021/08/29 01:05:07;;;;;;;10.57;7.20;;;15.50;65.60;;;;;;5102049;28;20042;-81
2021/08/29 01:08:05;;;;;;;9.80;6.93;;;15.50;65.70;;;;;;5090964;28;20491;-82
2021/08/29 01:10:56;;;;;;;9.32;7.15;;;15.40;65.50;;;;;;5073813;28;20036;-82
2021/08/29 01:13:34;;;;;;;9.82;7.80;;;15.40;65.50;;;;;;5059884;28;20039;-81
2021/08/29 01:16:11;;;;;;;9.95;7.22;;;15.40;65.60;;;;;;5104078;28;20039;-82
2021/08/29 01:18:50;;;;;;;8.50;7.63;;;15.30;65.40;;;;;;5105046;28;20032;-80
2021/08/29 01:21:23;;;;;;;10.63;7.32;;;15.30;65.40;;;;;;5105735;28;20122;-83
2021/08/29 01:23:55;;;;;;;8.23;7.22;;;15.30;65.50;;;;;;5106320;28;20046;-81
2021/08/29 01:26:30;;;;;;;8.90;8.00;;;15.30;65.60;;;;;;5105969;28;20023;-82
2021/08/29 01:29:03;;;;;;;10.05;7.65;;;15.20;65.50;;;;;;5088385;28;20035;-81
2021/08/29 01:31:32;;;;;;;12.18;7.95;;;15.20;65.50;;;;;;5088150;28;20048;-79
2021/08/29 01:34:03;;;;;;;9.60;7.68;;;15.20;65.50;;;;;;5068736;28;20165;-82
2021/08/29 01:36:32;;;;;;;9.00;7.60;;;15.20;65.60;;;;;;5086016;28;20482;-83
2021/08/29 01:39:02;;;;;;;10.32;7.75;;;15.10;65.50;;;;;;5085073;28;20028;-80
2021/08/29 01:41:32;;;;;;;10.77;7.68;;;15.10;65.60;;;;;;5106409;28;20023;-82
2021/08/29 01:43:59;;;;;;;9.02;7.95;;;15.10;66.20;;;;;;5093387;28;20054;-80
2021/08/29 01:46:25;;;;;;;8.88;7.72;;;15.10;65.70;;;;;;5079542;28;20020;-79
2021/08/29 01:49:07;;;;;;;9.30;7.03;;;15.10;65.70;;;;;;5080440;28;20032;-81
2021/08/29 01:51:34;;;;;;;8.77;7.35;;;15.00;65.60;;;;;;5089391;28;20051;-82
2021/08/29 01:54:12;;;;;;;9.88;8.35;;;15.00;65.60;;;;;;5089393;28;20033;-82
2021/08/29 01:57:14;;;;;;;10.40;7.60;;;15.00;65.70;;;;;;5027729;28;20440;-79
2021/08/29 01:59:45;;;;;;;9.23;7.55;;;15.00;65.70;;;;;;5058346;28;20032;-81
2021/08/29 02:02:13;;;;;;;8.73;7.82;;;14.90;65.60;;;;;;5089078;28;20028;-78
2021/08/29 02:04:44;;;;;;;10.60;7.82;;;14.90;65.60;;;;;;5092665;28;20082;-81
2021/08/29 02:07:16;;;;;;;8.52;7.60;;;14.90;65.70;;;;;;5076492;28;20043;-81
2021/08/29 02:09:51;;;;;;;11.45;7.45;;;14.90;65.70;;;;;;5093345;28;20031;-82
2021/08/29 02:12:18;;;;;;;8.77;7.88;;;14.90;65.80;;;;;;5076219;28;20487;-83
2021/08/29 02:14:51;;;;;;;8.88;7.70;;;14.80;65.70;;;;;;5093069;28;20081;-82
2021/08/29 02:17:20;;;;;;;11.13;8.02;;;14.80;65.80;;;;;;5094231;28;20055;-82
2021/08/29 02:19:47;;;;;;;8.52;7.40;;;14.80;65.80;;;;;;5092820;28;20078;-81
2021/08/29 02:22:14;;;;;;;9.02;7.53;;;14.80;65.90;;;;;;5094180;28;20455;-81
2021/08/29 02:24:44;;;;;;;12.95;7.18;;;14.70;65.70;;;;;;5059850;28;20112;-77
2021/08/29 02:27:17;;;;;;;8.10;7.13;;;14.70;65.80;;;;;;5091632;28;20020;-81
2021/08/29 02:29:46;;;;;;;10.38;8.20;;;14.70;65.80;;;;;;5076495;28;20096;-81
2021/08/29 02:32:16;;;;;;;8.27;7.35;;;14.70;65.80;;;;;;5093126;28;20031;-82
2021/08/29 02:34:45;;;;;;;10.25;7.47;;;14.70;65.90;;;;;;5093276;28;20024;-80
2021/08/29 02:37:16;;;;;;;8.32;7.03;;;14.60;65.80;;;;;;5092300;28;20111;-80
2021/08/29 02:39:55;;;;;;;11.38;7.45;;;14.70;66.00;;;;;;5077642;28;20119;-83
2021/08/29 02:42:23;;;;;;;8.90;7.20;;;14.70;66.00;;;;;;5092624;28;20063;-80
2021/08/29 02:44:56;;;;;;;12.37;7.57;;;14.60;65.90;;;;;;5092871;28;20460;-81
2021/08/29 02:47:23;;;;;;;9.20;7.95;;;14.60;65.90;;;;;;5075783;28;20032;-83
2021/08/29 02:49:52;;;;;;;10.95;8.00;;;14.60;65.90;;;;;;5093889;28;20476;-82
2021/08/29 02:52:19;;;;;;;12.20;8.15;;;14.60;65.90;;;;;;5093802;28;20028;-80
2021/08/29 02:54:48;;;;;;;9.07;8.15;;;14.60;66.00;;;;;;5092584;28;20085;-83
2021/08/29 02:57:15;;;;;;;13.52;8.13;;;14.60;66.00;;;;;;5093214;28;20028;-82
2021/08/29 02:59:48;;;;;;;8.57;7.68;;;14.60;66.10;;;;;;5092720;28;20035;-83
2021/08/29 03:02:14;;;;;;;9.07;8.00;;;14.50;65.90;;;;;;5093966;28;20028;-79
2021/08/29 03:04:42;;;;;;;9.43;8.35;;;14.50;65.90;;;;;;5092776;28;20036;-83
2021/08/29 03:07:09;;;;;;;11.70;8.60;;;14.50;66.00;;;;;;5091860;28;20387;-83
2021/08/29 03:09:35;;;;;;;10.43;8.02;;;14.50;66.00;;;;;;5092734;28;20694;-82
2021/08/29 03:12:10;;;;;;;10.07;7.72;;;14.50;66.00;;;;;;5075517;28;20067;-79
2021/08/29 03:15:04;;;;;;;10.25;7.15;;;14.40;66.00;;;;;;5092362;28;20052;-80
2021/08/29 03:17:31;;;;;;;10.20;7.55;;;14.40;65.90;;;;;;5091737;28;20039;-81
2021/08/29 03:20:07;;;;;;;10.17;7.77;;;14.40;66.00;;;;;;5091905;28;20032;-80
2021/08/29 03:22:59;;;;;;;12.40;8.15;;;14.40;66.00;;;;;;5089928;28;20051;-83
2021/08/29 03:25:25;;;;;;;12.98;8.40;;;14.40;66.00;;;;;;5093232;28;20483;-80
2021/08/29 03:27:52;;;;;;;15.25;8.25;;;14.30;65.90;;;;;;5092054;28;20056;-81
2021/08/29 03:30:19;;;;;;;9.45;8.43;;;14.30;65.90;;;;;;5075060;28;20105;-78
2021/08/29 03:32:47;;;;;;;9.15;7.93;;;14.30;66.00;;;;;;5091640;28;20024;-78
2021/08/29 03:35:27;;;;;;;10.55;8.55;;;14.30;66.00;;;;;;5091398;28;20042;-80
2021/08/29 03:37:57;;;;;;;9.32;7.80;;;14.20;65.90;;;;;;5091458;28;20031;-81
2021/08/29 03:40:24;;;;;;;12.57;8.90;;;14.20;65.90;;;;;;5091814;28;20035;-81
2021/08/29 03:42:51;;;;;;;11.48;9.23;;;14.20;66.00;;;;;;5091426;28;20050;-82
2021/08/29 03:45:17;;;;;;;12.00;8.45;;;14.20;66.00;;;;;;5091699;28;20093;-79
2021/08/29 03:47:43;;;;;;;12.60;8.45;;;14.20;66.00;;;;;;5091312;28;20600;-79
2021/08/29 03:50:10;;;;;;;11.98;8.65;;;14.20;66.00;;;;;;5091694;28;20402;-79
2021/08/29 03:52:41;;;;;;;7.78;7.03;;;14.20;66.10;;;;;;5091569;28;20111;-80
2021/08/29 03:55:20;;;;;;;10.40;8.52;;;14.10;66.00;;;;;;5091421;28;20126;-81
2021/08/29 03:57:51;;;;;;;9.52;8.18;;;14.10;66.00;;;;;;5091262;28;20062;-80
2021/08/29 04:00:18;;;;;;;13.00;8.23;;;14.10;66.00;;;;;;5091371;28;20040;-81
2021/08/29 04:02:52;;;;;;;9.45;8.38;;;14.10;66.10;;;;;;5091076;28;20032;-81
2021/08/29 04:05:37;;;;;;;9.30;7.93;;;14.10;66.10;;;;;;5091104;28;20036;-79
2021/08/29 04:08:05;;;;;;;12.63;8.15;;;14.00;66.00;;;;;;5090899;28;20100;-79
2021/08/29 04:10:31;;;;;;;10.13;7.80;;;14.00;66.00;;;;;;5090974;28;20036;-81
2021/08/29 04:12:57;;;;;;;13.65;8.15;;;14.00;66.10;;;;;;5090687;28;20059;-82
2021/08/29 04:15:44;;;;;;;11.05;8.20;;;14.00;66.10;;;;;;5092205;28;20028;-82
2021/08/29 04:18:10;;;;;;;10.52;8.40;;;13.90;65.90;;;;;;5092309;28;20064;-82
2021/08/29 04:20:37;;;;;;;10.85;8.25;;;13.90;66.00;;;;;;5074184;28;20032;-82
2021/08/29 04:23:04;;;;;;;12.07;9.27;;;13.90;66.00;;;;;;5090925;28;20036;-83
2021/08/29 04:25:30;;;;;;;9.40;7.60;;;13.90;66.00;;;;;;5090803;28;20028;-81
2021/08/29 04:27:56;;;;;;;10.80;8.25;;;13.90;66.10;;;;;;5090838;28;20032;-81
2021/08/29 04:30:23;;;;;;;10.40;8.20;;;13.90;66.10;;;;;;5091277;28;20118;-82
2021/08/29 04:32:51;;;;;;;10.23;7.88;;;13.90;66.20;;;;;;5090552;28;20028;-82
2021/08/29 04:35:32;;;;;;;8.18;7.35;;;13.90;66.20;;;;;;5090639;28;20073;-82
2021/08/29 04:38:01;;;;;;;9.35;8.23;;;13.80;66.00;;;;;;5090405;28;20028;-81
2021/08/29 04:40:28;;;;;;;11.27;7.55;;;13.80;66.00;;;;;;5090067;28;20035;-81
2021/08/29 04:43:01;;;;;;;8.57;7.67;;;13.80;66.10;;;;;;5090463;28;20036;-82
2021/08/29 04:45:31;;;;;;;12.68;8.38;;;13.80;66.10;;;;;;5090443;28;20280;-80
2021/08/29 04:48:04;;;;;;;8.75;7.43;;;13.80;66.20;;;;;;5068705;28;20041;-81
2021/08/29 04:50:30;;;;;;;9.32;7.70;;;13.80;66.20;;;;;;5066712;28;20077;-81
2021/08/29 04:52:57;;;;;;;8.88;7.90;;;13.70;66.00;;;;;;5066839;28;20584;-79
2021/08/29 04:55:23;;;;;;;12.93;8.18;;;13.70;66.10;;;;;;5066758;28;20105;-80
2021/08/29 04:57:49;;;;;;;10.90;8.48;;;13.70;66.10;;;;;;5077031;28;20039;-80
2021/08/29 05:00:15;;;;;;;11.32;8.18;;;13.70;66.20;;;;;;5097715;28;20024;-81
2021/08/29 05:02:46;;;;;;;10.10;7.38;;;13.60;66.00;;;;;;5082691;28;20472;-80
2021/08/29 05:05:12;;;;;;;10.70;7.68;;;13.70;66.20;;;;;;5065304;28;20047;-82
2021/08/29 05:07:38;;;;;;;9.98;7.68;;;13.60;66.10;;;;;;5068681;28;20058;-83
2021/08/29 05:10:06;;;;;;;10.90;7.75;;;13.60;66.10;;;;;;5084871;28;20089;-82
2021/08/29 05:12:43;;;;;;;8.02;7.15;;;13.60;66.20;;;;;;5085313;28;20536;-80
2021/08/29 05:15:11;;;;;;;8.25;7.30;;;13.60;66.20;;;;;;5084774;28;20077;-81
2021/08/29 05:17:37;;;;;;;9.10;7.72;;;13.60;66.20;;;;;;5068064;28;20138;-78
2021/08/29 05:20:04;;;;;;;9.68;8.10;;;13.60;66.20;;;;;;5105497;28;20119;-81
2021/08/29 05:23:05;;;;;;;9.27;7.50;;;13.60;66.30;;;;;;5091451;28;20035;-81
2021/08/29 05:25:55;;;;;;;10.07;7.15;;;13.50;66.00;;;;;;5080317;28;20040;-81
2021/08/29 05:28:21;;;;;;;9.00;7.80;;;13.50;66.10;;;;;;5096172;28;20034;-83
2021/08/29 05:30:47;;;;;;;9.60;8.20;;;13.50;66.00;;;;;;5104789;28;20390;-79
2021/08/29 05:33:15;;;;;;;8.80;7.90;;;13.50;66.10;;;;;;5084580;28;20059;-79
2021/08/29 05:35:41;;;;;;;9.63;7.85;;;13.50;66.10;;;;;;5064838;28;20391;-78
2021/08/29 05:38:07;;;;;;;8.68;7.75;;;13.50;66.20;;;;;;5079435;28;20039;-82
2021/08/29 05:43:33;;;;;;;10.80;7.35;;;13.50;66.20;;;;;;5703144;22;20049;-79
2021/08/29 05:46:00;;;;;;;10.55;7.60;;;13.50;66.20;;;;;;5034440;28;20037;-79
2021/08/29 05:48:27;;;;;;;9.68;7.97;;;13.50;66.20;;;;;;5030583;28;20104;-79
2021/08/29 05:50:53;;;;;;;7.90;7.07;;;13.50;66.20;;;;;;5029011;28;20037;-79
2021/08/29 05:53:20;;;;;;;10.40;8.13;;;13.50;66.20;;;;;;5026933;28;20046;-78
2021/08/29 05:55:51;;;;;;;9.20;7.80;;;13.50;66.20;;;;;;5022765;28;20060;-77
2021/08/29 05:58:17;;;;;;;8.38;7.47;;;13.50;66.30;;;;;;5039374;28;20043;-80
2021/08/29 06:00:44;;;;;;;9.63;7.45;;;13.50;66.30;;;;;;5016265;28;20028;-82
2021/08/29 06:03:11;;;;;;;11.20;7.65;;;13.50;66.30;;;;;;5020489;28;20469;-80
2021/08/29 06:05:37;;;;;;;11.63;8.13;;;13.60;66.40;;;;;;5034992;28;20052;-79
2021/08/29 06:08:25;;;;;;;10.90;8.43;;;13.60;66.50;;;;;;5034049;28;20053;-81
2021/08/29 06:10:51;;;;;;;11.73;9.57;;;13.60;66.50;;;;;;5044136;28;20013;-77
2021/08/29 06:13:19;;;;;;;9.10;8.18;;;13.60;66.50;;;;;;5044251;28;20238;-85
2021/08/29 06:15:45;;;;;;;12.63;8.27;;;13.70;66.70;;;;;;5048409;28;20092;-82
2021/08/29 06:18:15;;;;;;;11.35;9.57;;;13.70;66.70;;;;;;5031885;28;20055;-82
2021/08/29 06:20:41;;;;;;;11.93;9.35;;;13.70;66.80;;;;;;5041980;28;20021;-82
2021/08/29 06:23:08;;;;;;;13.05;10.27;;;13.70;66.80;;;;;;5045204;28;20051;-82
2021/08/29 06:25:52;;;;;;;17.10;9.77;;;13.70;66.80;;;;;;5046569;28;20182;-79
2021/08/29 06:28:48;;;;;;;14.43;9.18;;;13.80;67.00;;;;;;4981818;28;20074;-81
2021/08/29 06:31:32;;;;;;;14.05;10.05;;;13.90;67.20;;;;;;5028698;28;20026;-80
2021/08/29 06:34:01;;;;;;;11.38;10.23;;;13.90;67.20;;;;;;5051792;28;20026;-80
2021/08/29 06:36:29;;;;;;;13.52;10.82;;;13.90;67.30;;;;;;5022903;28;20160;-81
2021/08/29 06:38:58;;;;;;;11.40;8.90;;;14.00;67.50;;;;;;5034847;28;20147;-80
2021/08/29 06:41:25;;;;;;;12.07;9.82;;;14.00;67.60;;;;;;5050257;28;20088;-82
2021/08/29 06:43:54;;;;;;;12.32;9.43;;;14.10;67.80;;;;;;5041498;28;20038;-84
2021/08/29 06:46:39;;;;;;;14.70;10.00;;;14.10;67.90;;;;;;5036376;28;20066;-84
2021/08/29 06:49:28;;;;;;;13.55;10.82;;;14.20;68.10;;;;;;5003655;28;20033;-82
2021/08/29 06:52:12;;;;;;;13.18;10.43;;;14.30;68.20;;;;;;5036971;28;20060;-84
2021/08/29 06:54:57;;;;;;;14.23;10.02;;;14.40;68.40;;;;;;5032506;28;20044;-84
2021/08/29 06:57:46;;;;;;;13.10;11.05;;;14.50;68.50;;;;;;5021359;28;20602;-83
2021/08/29 07:00:13;;;;;;;13.90;12.10;;;14.60;68.60;;;;;;5010189;28;20034;-83
2021/08/29 07:02:40;;;;;;;11.52;9.88;;;14.70;68.80;;;;;;5016376;28;20111;-88
2021/08/29 07:05:06;;;;;;;16.13;11.52;;;14.90;69.20;;;;;;5027193;28;20071;-82
2021/08/29 07:07:33;;;;;;;15.13;11.95;;;14.90;69.10;;;;;;4998884;28;20029;-80
2021/08/29 07:09:59;;;;;;;18.10;11.18;;;15.00;69.30;;;;;;5026250;28;20666;-81
2021/08/29 07:12:25;;;;;;;26.35;13.13;;;15.10;69.40;;;;;;5026727;28;20021;-79
2021/08/29 07:15:14;;;;;;;21.00;11.75;;;15.20;69.60;;;;;;5008724;28;20037;-82
2021/08/29 07:17:40;;;;;;;18.63;12.93;;;15.40;69.80;;;;;;4972699;28;20548;-81
2021/08/29 07:20:13;;;;;;;15.82;12.02;;;15.40;69.80;;;;;;5022985;28;20048;-81
2021/08/29 07:23:08;;;;;;;18.40;13.77;;;15.60;70.00;;;;;;4951449;28;20055;-80
2021/08/29 07:25:54;;;;;;;25.65;14.07;;;15.70;70.00;;;;;;4967700;28;20378;-80
2021/08/29 07:28:42;;;;;;;19.45;14.27;;;15.80;70.00;;;;;;4999342;28;20118;-82
2021/08/29 07:31:27;;;;;;;20.98;13.35;;;15.80;69.80;;;;;;5008141;28;20383;-80
2021/08/29 07:33:55;;;;;;;19.13;14.77;;;15.90;69.80;;;;;;5007367;28;20030;-83
2021/08/29 07:36:32;;;;;;;19.13;13.57;;;16.00;69.80;;;;;;5008330;28;20037;-84
2021/08/29 07:39:05;;;;;;;18.23;13.87;;;16.10;69.80;;;;;;5021012;28;20033;-84
2021/08/29 07:41:31;;;;;;;15.05;13.45;;;16.10;69.60;;;;;;5027317;28;20480;-84
2021/08/29 07:43:58;;;;;;;22.42;14.48;;;16.10;69.40;;;;;;5026173;28;20057;-82
2021/08/29 07:46:26;;;;;;;18.55;14.15;;;16.20;69.40;;;;;;4996859;28;20034;-82
2021/08/29 07:48:53;;;;;;;19.33;13.75;;;16.30;69.40;;;;;;5004680;28;20526;-84
2021/08/29 07:51:19;;;;;;;15.23;13.57;;;16.30;69.30;;;;;;5006740;28;20026;-82
2021/08/29 07:54:24;;;;;;;19.20;13.95;;;16.50;69.60;;;;;;4965231;28;20034;-84
2021/08/29 07:57:15;;;;;;;16.60;13.38;;;16.60;69.50;;;;;;4972563;28;20201;-82
2021/08/29 07:59:43;;;;;;;19.50;12.23;;;16.70;69.40;;;;;;4957126;28;20061;-83
2021/08/29 08:02:11;;;;;;;19.05;14.27;;;16.80;69.40;;;;;;4987677;28;20041;-81
2021/08/29 08:04:56;;;;;;;16.17;12.40;;;16.90;69.30;;;;;;5000189;28;20080;-81
2021/08/29 08:07:48;;;;;;;17.60;13.43;;;17.10;69.30;;;;;;5007381;28;20044;-81
2021/08/29 08:10:33;;;;;;;16.50;12.43;;;17.20;69.10;;;;;;5020101;28;20150;-83
2021/08/29 08:13:19;;;;;;;19.25;14.38;;;17.30;69.00;;;;;;5005467;28;20393;-81
2021/08/29 08:15:45;;;;;;;16.08;13.45;;;17.50;69.10;;;;;;5021937;28;20034;-83
2021/08/29 08:18:11;;;;;;;20.58;14.75;;;17.50;68.90;;;;;;5009279;28;20034;-82
2021/08/29 08:20:37;;;;;;;23.48;14.63;;;17.70;68.90;;;;;;5005302;28;20029;-80
2021/08/29 08:23:21;;;;;;;18.40;14.10;;;17.70;68.50;;;;;;5004739;28;20147;-83
2021/08/29 08:26:10;;;;;;;19.27;15.05;;;17.80;68.30;;;;;;5017537;28;20109;-80
2021/08/29 08:29:06;;;;;;;18.63;14.85;;;17.80;68.20;;;;;;5002037;28;20100;-81
2021/08/29 08:31:50;;;;;;;23.10;16.40;;;17.80;67.90;;;;;;5005369;28;20038;-81
2021/08/29 08:34:37;;;;;;;18.13;15.93;;;17.90;68.00;;;;;;4974347;28;20077;-81
2021/08/29 08:37:06;;;;;;;23.25;16.35;;;18.00;68.00;;;;;;5005298;28;20037;-80
2021/08/29 08:39:51;;;;;;;24.45;17.48;;;18.00;67.80;;;;;;4987044;28;20045;-80
2021/08/29 08:42:47;;;;;;;21.25;16.90;;;18.10;67.80;;;;;;4979924;28;20268;-83
2021/08/29 08:45:34;;;;;;;24.13;18.50;;;18.10;67.60;;;;;;4994014;28;20048;-81
2021/08/29 08:48:27;;;;;;;22.52;18.67;;;18.10;67.50;;;;;;4997632;28;20049;-82
2021/08/29 08:51:15;;;;;;;23.63;19.15;;;18.10;67.90;;;;;;5006486;28;20180;-80
2021/08/29 08:54:02;;;;;;;26.23;18.45;;;18.20;67.50;;;;;;5019282;28;20120;-85
2021/08/29 08:56:40;;;;;;;24.13;19.38;;;18.10;67.30;;;;;;5022784;28;20045;-83
2021/08/29 08:59:33;;;;;;;25.23;19.02;;;18.20;67.40;;;;;;5003684;28;20460;-81
2021/08/29 09:02:23;;;;;;;25.60;19.05;;;18.30;67.50;;;;;;4986823;28;20065;-80
2021/08/29 09:04:58;;;;;;;23.10;17.10;;;18.30;67.30;;;;;;5022331;28;20038;-82
2021/08/29 09:07:26;;;;;;;19.20;15.88;;;18.40;67.50;;;;;;5023435;28;20284;-81
2021/08/29 09:09:52;;;;;;;20.50;16.95;;;18.40;67.30;;;;;;5020872;28;20302;-83
2021/08/29 09:12:18;;;;;;;22.02;17.95;;;18.50;67.40;;;;;;5004687;28;20052;-83
2021/08/29 09:14:49;;;;;;;21.55;17.98;;;18.60;67.50;;;;;;5003797;28;20066;-83
2021/08/29 09:17:37;;;;;;;24.15;18.65;;;18.70;68.00;;;;;;5018741;28;20037;-84
2021/08/29 09:20:17;;;;;;;31.02;19.95;;;18.70;67.30;;;;;;5020706;28;20192;-82
2021/08/29 09:22:47;;;;;;;23.42;19.15;;;18.80;67.40;;;;;;5004414;28;20034;-83
2021/08/29 09:25:43;;;;;;;26.05;19.52;;;18.80;67.30;;;;;;5002904;28;20156;-81
2021/08/29 09:28:15;;;;;;;23.83;18.85;;;18.80;67.20;;;;;;5024703;28;20057;-82
2021/08/29 09:30:53;;;;;;;28.80;18.92;;;18.80;67.10;;;;;;5040296;28;20412;-80
2021/08/29 09:33:21;;;;;;;27.75;21.05;;;18.90;67.30;;;;;;5021803;28;20505;-81
2021/08/29 09:35:54;;;;;;;26.13;20.58;;;18.90;67.10;;;;;;4998891;28;20053;-81
2021/08/29 09:38:46;;;;;;;22.60;17.83;;;19.00;67.20;;;;;;4975338;28;20048;-81
2021/08/29 09:41:27;;;;;;;32.00;19.67;;;19.10;67.20;;;;;;5004692;28;20036;-81
2021/08/29 09:44:16;;;;;;;24.42;20.10;;;19.20;67.30;;;;;;5004785;28;20050;-82
2021/08/29 09:47:01;;;;;;;28.25;20.10;;;19.20;67.10;;;;;;5020385;28;20052;-83
2021/08/29 09:49:50;;;;;;;24.17;19.95;;;19.30;67.30;;;;;;5023122;28;20021;-80
2021/08/29 09:52:26;;;;;;;24.80;18.23;;;19.30;67.10;;;;;;5039530;28;20033;-81
2021/08/29 09:55:40;;;;;;;24.98;17.23;;;19.30;66.90;;;;;;5018885;28;20385;-83
2021/08/29 09:58:27;;;;;;;22.55;17.40;;;19.50;67.10;;;;;;5003268;28;20057;-81
2021/08/29 10:01:23;;;;;;;23.40;18.15;;;19.60;67.10;;;;;;4989233;28;20026;-80
2021/08/29 10:04:21;;;;;;;22.98;17.25;;;19.70;67.00;;;;;;4975326;28;20133;-81
2021/08/29 10:06:52;;;;;;;21.38;17.67;;;19.70;66.70;;;;;;5010367;28;20480;-83
2021/08/29 10:09:25;;;;;;;24.65;17.63;;;19.70;66.60;;;;;;5003252;28;20053;-79
2021/08/29 10:11:57;;;;;;;21.98;17.67;;;19.70;66.40;;;;;;5003338;28;20026;-80
2021/08/29 10:14:24;;;;;;;23.20;17.90;;;19.70;66.40;;;;;;5002719;28;20508;-79
2021/08/29 10:17:14;;;;;;;22.45;19.05;;;19.70;66.40;;;;;;5017055;28;20044;-79
2021/08/29 10:19:59;;;;;;;26.63;18.88;;;19.80;66.60;;;;;;5004054;28;20549;-81
2021/08/29 10:23:01;;;;;;;26.95;18.88;;;19.90;66.60;;;;;;4992390;28;20037;-81
2021/08/29 10:25:28;;;;;;;27.30;19.55;;;20.00;66.50;;;;;;5003959;28;20029;-80
2021/08/29 10:28:14;;;;;;;27.33;19.15;;;20.10;66.30;;;;;;5006596;28;20441;-79
2021/08/29 10:30:46;;;;;;;24.40;17.98;;;20.20;66.10;;;;;;5007195;28;20030;-80
2021/08/29 10:33:48;;;;;;;21.58;17.40;;;20.20;65.90;;;;;;4976427;28;20075;-80
2021/08/29 10:36:19;;;;;;;26.27;18.70;;;20.30;65.90;;;;;;5000449;28;20476;-81
2021/08/29 10:39:13;;;;;;;23.23;16.20;;;20.30;65.80;;;;;;5006889;28;20458;-80
2021/08/29 10:42:00;;;;;;;25.88;17.30;;;20.40;65.90;;;;;;5008311;28;20496;-80
2021/08/29 10:44:48;;;;;;;25.23;16.90;;;20.40;65.80;;;;;;5007261;28;20496;-80
2021/08/29 10:47:36;;;;;;;20.83;16.25;;;20.50;65.80;;;;;;5006697;28;20381;-79
2021/08/29 10:50:29;;;;;;;20.60;15.93;;;20.70;66.00;;;;;;4998560;28;20483;-79
2021/08/29 10:52:55;;;;;;;19.58;15.13;;;20.70;65.80;;;;;;5022450;28;20028;-79
2021/08/29 10:55:29;;;;;;;18.50;14.45;;;20.70;65.60;;;;;;5011486;28;20074;-78
2021/08/29 10:58:02;;;;;;;19.58;15.52;;;20.70;65.60;;;;;;5038050;28;20487;-79
2021/08/29 11:00:31;;;;;;;20.30;16.35;;;20.80;65.70;;;;;;5022652;28;20034;-78
2021/08/29 11:03:27;;;;;;;20.42;14.68;;;20.80;65.60;;;;;;5003414;28;20041;-81
2021/08/29 11:06:44;;;;;;;21.70;14.35;;;20.90;65.50;;;;;;4998891;28;20776;-81
2021/08/29 11:09:29;;;;;;;18.73;14.23;;;20.90;65.30;;;;;;5000242;28;20037;-81
2021/08/29 11:11:56;;;;;;;22.65;15.30;;;21.00;65.40;;;;;;5009299;28;20161;-81
2021/08/29 11:14:47;;;;;;;18.23;14.38;;;21.10;65.30;;;;;;5009785;28;20149;-80
2021/08/29 11:17:15;;;;;;;15.98;14.27;;;21.10;64.80;;;;;;4992145;28;20121;-80
2021/08/29 11:20:02;;;;;;;19.05;15.20;;;21.10;64.60;;;;;;4994374;28;20045;-80
2021/08/29 11:22:48;;;;;;;18.23;14.68;;;21.20;64.40;;;;;;5000112;28;21426;-80
2021/08/29 11:25:33;;;;;;;18.35;14.30;;;21.20;64.00;;;;;;4991452;28;20444;-79
2021/08/29 11:28:38;;;;;;;17.73;13.73;;;21.30;64.00;;;;;;4971234;28;20038;-81
2021/08/29 11:31:52;;;;;;;17.70;14.82;;;21.30;63.80;;;;;;4952903;28;20052;-85
2021/08/29 11:34:22;;;;;;;21.90;14.82;;;21.40;63.50;;;;;;4989288;28;20042;-85
2021/08/29 11:36:48;;;;;;;17.27;14.32;;;21.50;63.50;;;;;;4970653;28;20046;-82
2021/08/29 11:39:36;;;;;;;15.60;13.98;;;21.50;63.20;;;;;;5000133;28;20034;-83
2021/08/29 11:42:29;;;;;;;16.75;15.05;;;21.60;62.90;;;;;;4997747;28;20308;-83
2021/08/29 11:45:00;;;;;;;20.10;15.05;;;21.60;62.90;;;;;;5016188;28;20122;-83
2021/08/29 11:47:42;;;;;;;18.50;15.52;;;21.60;62.70;;;;;;5016627;28;20912;-82
2021/08/29 11:50:17;;;;;;;21.00;14.45;;;21.60;62.30;;;;;;5001328;28;20104;-84
2021/08/29 11:53:03;;;;;;;20.95;13.57;;;21.70;62.40;;;;;;4991794;28;20042;-82
2021/08/29 11:55:29;;;;;;;20.23;13.80;;;21.70;62.10;;;;;;5000078;28;20523;-83
2021/08/29 11:57:56;;;;;;;19.13;13.30;;;21.80;62.00;;;;;;5019174;28;20420;-82
2021/08/29 12:00:26;;;;;;;18.17;13.13;;;21.80;61.80;;;;;;5004806;28;20040;-81
2021/08/29 12:03:10;;;;;;;15.32;12.10;;;21.80;61.60;;;;;;5020307;28;20108;-82
2021/08/29 12:05:55;;;;;;;16.13;12.88;;;21.90;61.60;;;;;;5004730;28;20067;-81
2021/08/29 12:08:49;;;;;;;;;;;21.90;61.20;;;;;;4985357;28;20196;-82
2021/08/29 12:11:37;;;;;;;16.73;10.48;;;22.00;61.80;;;;;;5004838;28;20313;-82
2021/08/29 12:14:29;;;;;;;13.38;11.13;;;22.10;61.70;;;;;;4999185;28;20033;-84
2021/08/29 12:17:18;;;;;;;12.38;10.88;;;22.20;61.50;;;;;;4973727;28;20300;-78
2021/08/29 12:19:45;;;;;;;14.60;10.70;;;22.40;61.60;;;;;;5012855;28;20030;-80
2021/08/29 12:22:34;;;;;;;12.73;10.85;;;22.60;61.70;;;;;;4999457;28;20307;-82
2021/08/29 12:25:14;;;;;;;11.25;9.55;;;22.70;61.60;;;;;;4990316;28;20037;-81
2021/08/29 12:27:42;;;;;;;14.73;10.02;;;22.80;61.50;;;;;;4989142;28;20026;-82
2021/08/29 12:30:10;;;;;;;10.02;8.55;;;22.90;61.30;;;;;;5004668;28;20092;-82
2021/08/29 12:32:36;;;;;;;11.18;9.23;;;23.00;61.30;;;;;;5021799;28;20084;-83
2021/08/29 12:35:07;;;;;;;10.40;8.90;;;23.10;61.20;;;;;;5006265;28;20026;-82
2021/08/29 12:37:44;;;;;;;8.85;8.07;;;23.10;61.00;;;;;;5022952;28;20029;-82
2021/08/29 12:40:13;;;;;;;10.90;9.02;;;23.20;60.70;;;;;;5004694;28;20366;-83
2021/08/29 12:42:44;;;;;;;10.88;8.10;;;23.20;60.70;;;;;;5020658;28;20040;-83
2021/08/29 12:45:34;;;;;;;11.40;8.45;;;23.30;60.60;;;;;;5006578;28;20050;-83
2021/08/29 12:48:01;;;;;;;13.00;7.97;;;23.40;60.60;;;;;;5008540;28;20107;-81
2021/08/29 12:50:28;;;;;;;10.18;7.95;;;23.40;60.40;;;;;;5010472;28;20082;-83
2021/08/29 12:53:02;;;;;;;9.75;7.93;;;23.50;60.40;;;;;;5004473;28;20473;-83
2021/08/29 12:55:29;;;;;;;11.45;8.23;;;23.50;60.30;;;;;;5004024;28;20164;-82
2021/08/29 12:58:03;;;;;;;9.43;8.52;;;23.60;60.80;;;;;;5004064;28;20388;-82
2021/08/29 13:00:40;;;;;;;10.38;8.05;;;23.80;60.30;;;;;;5020685;28;20033;-82
2021/08/29 13:03:07;;;;;;;12.40;8.50;;;23.80;59.90;;;;;;5004180;28;20045;-83
2021/08/29 13:05:39;;;;;;;8.68;7.70;;;23.90;60.00;;;;;;5004283;28;20038;-84
2021/08/29 13:08:07;;;;;;;8.70;7.88;;;23.90;59.80;;;;;;5021021;28;20033;-84
2021/08/29 13:10:33;;;;;;;8.88;7.97;;;23.90;59.60;;;;;;5005915;28;20034;-83
2021/08/29 13:13:03;;;;;;;10.85;8.30;;;24.00;59.60;;;;;;5005767;28;20037;-84
2021/08/29 13:15:29;;;;;;;10.43;7.53;;;24.10;59.40;;;;;;5004451;28;20233;-84
2021/08/29 13:17:58;;;;;;;12.00;9.02;;;24.20;59.50;;;;;;5020558;28;20041;-85